createdAt,value
2022-12-25T00:00:55.483Z,99866.00
2022-12-25T00:03:23.090Z,99863.28
2022-12-25T00:05:50.179Z,99856.66
2022-12-25T00:08:17.153Z,99851.06
2022-12-25T00:10:45.456Z,99847.34
2022-12-25T00:13:12.800Z,99851.56
2022-12-25T00:15:40.698Z,99852.75
2022-12-25T00:18:07.695Z,99840.56
2022-12-25T00:20:34.697Z,99846.97
2022-12-25T00:23:01.804Z,99835.59
2022-12-25T00:25:28.872Z,99842.56
2022-12-25T00:27:55.931Z,99832.88
2022-12-25T00:30:22.908Z,99835.53
2022-12-25T00:32:49.933Z,99825.53
2022-12-25T00:35:16.999Z,99819.72
2022-12-25T00:37:44.069Z,99819.03
2022-12-25T00:40:11.453Z,99809.56
2022-12-25T00:42:38.755Z,99805.13
2022-12-25T00:45:06.330Z,99815.00
2022-12-25T00:47:33.377Z,99819.41
2022-12-25T00:50:00.515Z,99819.91
2022-12-25T00:52:27.589Z,99817.19
2022-12-25T00:54:54.673Z,99831.66
2022-12-25T00:57:21.751Z,99831.66
2022-12-25T00:59:48.751Z,99842.19
2022-12-25T01:02:15.989Z,99849.16
2022-12-25T01:04:43.168Z,99852.75
2022-12-25T01:07:10.169Z,99857.00
2022-12-25T01:09:37.640Z,99858.00
2022-12-25T01:12:04.834Z,99856.19
2022-12-25T01:14:31.893Z,99853.47
2022-12-25T01:16:59.024Z,99852.31
2022-12-25T01:19:26.290Z,99846.88
2022-12-25T01:21:53.399Z,99844.63
2022-12-25T01:24:20.536Z,99859.06
2022-12-25T01:26:47.665Z,99854.97
2022-12-25T01:29:14.731Z,99861.88
2022-12-25T01:31:42.068Z,99861.88
2022-12-25T01:34:09.355Z,99861.72
2022-12-25T01:36:36.391Z,99860.25
2022-12-25T01:39:03.932Z,99875.38
2022-12-25T01:41:31.127Z,99866.19
2022-12-25T01:44:14.474Z,99874.50
2022-12-25T01:46:43.401Z,99874.34
2022-12-25T01:49:22.468Z,99863.28
2022-12-25T01:52:02.220Z,99869.19
2022-12-25T01:54:33.375Z,99872.44
2022-12-25T01:57:09.311Z,99874.94
2022-12-25T01:59:37.507Z,99879.47
2022-12-25T02:02:04.668Z,99874.22
2022-12-25T02:04:38.215Z,99867.06
2022-12-25T02:07:13.159Z,99863.50
2022-12-25T02:09:41.202Z,99865.03
2022-12-25T02:12:14.784Z,99868.06
2022-12-25T02:14:41.843Z,99871.31
2022-12-25T02:17:42.950Z,99865.03
2022-12-25T02:20:33.389Z,99870.13
2022-12-25T02:23:38.234Z,99873.03
2022-12-25T02:26:29.823Z,99869.16
2022-12-25T02:29:25.293Z,99861.69
2022-12-25T02:32:01.915Z,99851.53
2022-12-25T02:34:38.068Z,99846.59
2022-12-25T02:37:12.890Z,99854.59
2022-12-25T02:39:44.084Z,99838.81
2022-12-25T02:42:22.451Z,99840.91
2022-12-25T02:44:51.337Z,99849.75
2022-12-25T02:47:19.777Z,99838.03
2022-12-25T02:49:49.301Z,99836.47
2022-12-25T02:52:19.817Z,99843.13
2022-12-25T02:54:59.711Z,99843.13
2022-12-25T02:57:32.293Z,99823.28
2022-12-25T03:00:01.983Z,99823.13
2022-12-25T03:02:31.134Z,99827.69
2022-12-25T03:05:02.937Z,99831.28
2022-12-25T03:07:30.929Z,99821.94
2022-12-25T03:10:05.007Z,99837.38
2022-12-25T03:12:42.387Z,99824.81
2022-12-25T03:15:12.565Z,99823.91
2022-12-25T03:17:39.677Z,99831.59
2022-12-25T03:20:07.535Z,99834.25
2022-12-25T03:22:34.853Z,99837.34
2022-12-25T03:25:02.692Z,99837.34
2022-12-25T03:27:33.153Z,99834.63
2022-12-25T03:30:00.882Z,99835.63
2022-12-25T03:32:39.641Z,99822.88
2022-12-25T03:35:31.325Z,99829.19
2022-12-25T03:38:23.078Z,99838.03
2022-12-25T03:41:08.132Z,99837.13
2022-12-25T03:43:54.161Z,99836.25
2022-12-25T03:46:27.309Z,99835.44
2022-12-25T03:49:03.839Z,99829.84
2022-12-25T03:51:35.910Z,99834.72
2022-12-25T03:54:06.135Z,99830.47
2022-12-25T03:56:35.996Z,99829.63
2022-12-25T03:59:03.461Z,99826.53
2022-12-25T04:01:30.572Z,99829.78
2022-12-25T04:03:57.756Z,99841.13
2022-12-25T04:06:24.743Z,99840.66
2022-12-25T04:08:51.847Z,99829.09
2022-12-25T04:11:19.015Z,99838.09
2022-12-25T04:13:45.998Z,99827.53
2022-12-25T04:16:13.068Z,99816.22
2022-12-25T04:18:40.582Z,99816.72
2022-12-25T04:21:07.621Z,99824.72
2022-12-25T04:23:34.667Z,99827.28
2022-12-25T04:26:01.715Z,99818.44
2022-12-25T04:28:28.819Z,99815.03
2022-12-25T04:31:00.672Z,99800.28
2022-12-25T04:33:27.810Z,99798.94
2022-12-25T04:35:54.857Z,99796.69
2022-12-25T04:38:21.938Z,99791.25
2022-12-25T04:40:49.032Z,99787.00
2022-12-25T04:43:16.082Z,99790.28
2022-12-25T04:45:43.095Z,99782.97
2022-12-25T04:48:10.125Z,99779.06
2022-12-25T04:50:37.180Z,99790.09
2022-12-25T04:53:04.300Z,99800.16
2022-12-25T04:55:31.346Z,99802.34
2022-12-25T04:57:58.343Z,99804.88
2022-12-25T05:00:25.362Z,99793.00
2022-12-25T05:02:52.576Z,99799.81
2022-12-25T05:05:19.869Z,99798.78
2022-12-25T05:07:46.946Z,99791.97
2022-12-25T05:10:14.047Z,99791.78
2022-12-25T05:12:41.204Z,99794.63
2022-12-25T05:15:08.668Z,99791.78
2022-12-25T05:17:35.657Z,99801.41
2022-12-25T05:20:03.447Z,99791.38
2022-12-25T05:22:30.547Z,99802.94
2022-12-25T05:24:57.540Z,99793.94
2022-12-25T05:27:24.725Z,99793.09
2022-12-25T05:29:51.709Z,99790.38
2022-12-25T05:32:18.788Z,99788.66
2022-12-25T05:34:45.882Z,99786.50
2022-12-25T05:37:13.053Z,99791.78
2022-12-25T05:39:40.174Z,99797.19
2022-12-25T05:42:07.179Z,99803.09
2022-12-25T05:44:34.236Z,99808.16
2022-12-25T05:47:01.409Z,99801.56
2022-12-25T05:49:28.495Z,99798.16
2022-12-25T05:51:55.645Z,99795.63
2022-12-25T05:54:22.669Z,99797.31
2022-12-25T05:56:49.804Z,99801.19
2022-12-25T05:59:16.928Z,99800.19
2022-12-25T06:01:44.049Z,99803.38
2022-12-25T06:04:12.993Z,99802.91
2022-12-25T06:06:40.696Z,99791.88
2022-12-25T06:09:08.675Z,99806.13
2022-12-25T06:11:35.679Z,99809.88
2022-12-25T06:14:02.797Z,99801.41
2022-12-25T06:16:37.324Z,99796.28
2022-12-25T06:19:05.692Z,99811.09
2022-12-25T06:21:33.019Z,99802.25
2022-12-25T06:24:01.121Z,99805.66
2022-12-25T06:26:28.530Z,99801.41
2022-12-25T06:28:55.573Z,99797.97
2022-12-25T06:31:23.990Z,99801.72
2022-12-25T06:33:51.298Z,99809.03
2022-12-25T06:36:21.399Z,99798.16
2022-12-25T06:38:50.602Z,99790.03
2022-12-25T06:41:20.228Z,99792.75
2022-12-25T06:43:53.090Z,99776.44
2022-12-25T06:46:20.969Z,99780.00
2022-12-25T06:48:48.122Z,99780.69
2022-12-25T06:51:16.711Z,99772.22
2022-12-25T06:53:43.865Z,99782.91
2022-12-25T06:56:13.684Z,99771.88
2022-12-25T06:58:46.159Z,99765.59
2022-12-25T07:01:28.494Z,99760.88
2022-12-25T07:04:01.790Z,99764.44
2022-12-25T07:06:29.261Z,99766.47
2022-12-25T07:08:56.720Z,99769.53
2022-12-25T07:11:24.382Z,99774.13
2022-12-25T07:13:51.449Z,99780.94
2022-12-25T07:16:18.581Z,99773.63
2022-12-25T07:18:45.803Z,99784.13
2022-12-25T07:21:18.657Z,99790.78
2022-12-25T07:23:47.020Z,99790.78
2022-12-25T07:26:14.466Z,99786.22
2022-12-25T07:28:41.576Z,99789.44
2022-12-25T07:31:14.105Z,99791.84
2022-12-25T07:33:41.687Z,99784.84
2022-12-25T07:36:12.589Z,99782.47
2022-12-25T07:38:41.701Z,99784.03
2022-12-25T07:41:10.547Z,99781.78
2022-12-25T07:43:37.665Z,99788.44
2022-12-25T07:46:05.195Z,99780.13
2022-12-25T07:48:32.604Z,99766.06
2022-12-25T07:51:04.914Z,99776.94
2022-12-25T07:53:32.548Z,99776.06
2022-12-25T07:56:06.038Z,99768.28
2022-12-25T07:58:34.213Z,99770.50
2022-12-25T08:01:05.945Z,99773.22
2022-12-25T08:03:33.792Z,99763.03
2022-12-25T08:06:02.274Z,99761.69
2022-12-25T08:08:29.616Z,99756.94
2022-12-25T08:10:56.632Z,99754.56
2022-12-25T08:13:23.875Z,99761.34
2022-12-25T08:15:51.082Z,99768.63
2022-12-25T08:18:18.163Z,99778.81
2022-12-25T08:20:45.161Z,99776.63
2022-12-25T08:23:12.153Z,99781.25
2022-12-25T08:25:39.313Z,99777.84
2022-12-25T08:28:06.402Z,99777.53
2022-12-25T08:30:33.614Z,99782.44
2022-12-25T08:33:00.733Z,99768.53
2022-12-25T08:35:29.066Z,99759.88
2022-12-25T08:37:56.045Z,99754.94
2022-12-25T08:40:23.099Z,99743.06
2022-12-25T08:42:50.092Z,99746.47
2022-12-25T08:45:17.176Z,99734.75
2022-12-25T08:47:44.165Z,99725.06
2022-12-25T08:50:11.184Z,99736.97
2022-12-25T08:52:38.586Z,99735.44
2022-12-25T08:55:06.052Z,99749.25
2022-12-25T08:57:33.072Z,99741.75
2022-12-25T09:00:02.731Z,99731.06
2022-12-25T09:02:29.975Z,99715.09
2022-12-25T09:04:57.310Z,99703.38
2022-12-25T09:07:24.469Z,99696.56
2022-12-25T09:09:51.599Z,99706.25
2022-12-25T09:12:18.855Z,99715.75
2022-12-25T09:14:45.906Z,99716.59
2022-12-25T09:17:12.961Z,99707.75
2022-12-25T09:19:40.094Z,99709.75
2022-12-25T09:22:07.105Z,99710.59
2022-12-25T09:24:34.202Z,99710.22
2022-12-25T09:27:01.354Z,99721.63
2022-12-25T09:29:28.390Z,99717.00
2022-12-25T09:31:55.410Z,99727.59
2022-12-25T09:34:22.590Z,99727.09
2022-12-25T09:36:49.877Z,99721.28
2022-12-25T09:39:17.085Z,99729.78
2022-12-25T09:42:05.299Z,99734.00
2022-12-25T09:44:37.210Z,99736.69
2022-12-25T09:47:21.934Z,99734.09
2022-12-25T09:50:18.706Z,99739.84
2022-12-25T09:53:16.358Z,99741.72
2022-12-25T09:55:53.215Z,99731.47
2022-12-25T09:58:20.296Z,99729.75
2022-12-25T10:00:57.585Z,99726.00
2022-12-25T10:03:46.282Z,99734.84
2022-12-25T10:06:16.972Z,99730.25
2022-12-25T10:08:43.919Z,99736.91
2022-12-25T10:11:26.017Z,99727.38
2022-12-25T10:14:08.025Z,99717.19
2022-12-25T10:16:50.317Z,99714.47
2022-12-25T10:19:33.500Z,99710.03
2022-12-25T10:22:09.049Z,99704.81
2022-12-25T10:24:42.693Z,99703.09
2022-12-25T10:27:32.487Z,99697.19
2022-12-25T10:30:01.629Z,99680.31
2022-12-25T10:32:28.734Z,99679.97
2022-12-25T10:34:55.944Z,99670.22
2022-12-25T10:37:23.036Z,99667.00
2022-12-25T10:39:50.037Z,99661.19
2022-12-25T10:42:28.713Z,99640.75
2022-12-25T10:44:59.225Z,99637.84
2022-12-25T10:47:30.859Z,99647.34
2022-12-25T10:49:58.719Z,99633.03
2022-12-25T10:52:28.526Z,99624.34
2022-12-25T10:54:55.911Z,99623.25
2022-12-25T10:57:25.708Z,99610.94
2022-12-25T10:59:54.985Z,99610.91
2022-12-25T11:02:27.303Z,99612.53
2022-12-25T11:05:04.121Z,99611.91
2022-12-25T11:07:33.094Z,99604.88
2022-12-25T11:10:05.568Z,99601.31
2022-12-25T11:12:41.796Z,99605.72
2022-12-25T11:15:42.365Z,99600.19
2022-12-25T11:18:33.110Z,99590.00
2022-12-25T11:21:18.051Z,99589.25
2022-12-25T11:23:50.796Z,99572.06
2022-12-25T11:26:18.554Z,99570.66
2022-12-25T11:28:46.735Z,99570.06
2022-12-25T11:31:23.014Z,99573.25
2022-12-25T11:34:04.350Z,99568.56
2022-12-25T11:36:43.521Z,99571.75
2022-12-25T11:39:30.284Z,99574.88
2022-12-25T11:42:23.174Z,99568.94
2022-12-25T11:45:26.009Z,99581.25
2022-12-25T11:48:04.772Z,99581.16
2022-12-25T11:50:36.329Z,99579.19
2022-12-25T11:53:17.378Z,99575.84
2022-12-25T11:55:50.963Z,99573.13
2022-12-25T11:58:42.025Z,99565.88
2022-12-25T12:01:21.619Z,99566.06
2022-12-25T12:03:49.270Z,99564.19
2022-12-25T12:06:54.427Z,99557.84
2022-12-25T12:09:55.139Z,99549.69
2022-12-25T12:12:48.837Z,99537.63
2022-12-25T12:15:28.820Z,99535.78
2022-12-25T12:18:07.905Z,99522.41
2022-12-25T12:20:36.614Z,99522.41
2022-12-25T12:23:15.363Z,99504.22
2022-12-25T12:25:44.532Z,99496.78
2022-12-25T12:28:21.439Z,99500.66
2022-12-25T12:31:04.339Z,99510.09
2022-12-25T12:33:36.900Z,99516.50
2022-12-25T12:36:05.788Z,99515.38
2022-12-25T12:38:34.157Z,99500.34
2022-12-25T12:41:07.176Z,99491.53
2022-12-25T12:43:52.813Z,99477.25
2022-12-25T12:46:30.084Z,99461.72
2022-12-25T12:49:19.897Z,99458.78
2022-12-25T12:51:48.272Z,99453.34
2022-12-25T12:54:23.344Z,99457.03
2022-12-25T12:57:06.138Z,99452.16
2022-12-25T12:59:38.925Z,99459.06
2022-12-25T13:02:25.763Z,99462.75
2022-12-25T13:05:05.219Z,99462.47
2022-12-25T13:07:56.784Z,99470.47
2022-12-25T13:10:32.314Z,99467.94
2022-12-25T13:13:23.315Z,99471.34
2022-12-25T13:15:51.557Z,99467.56
2022-12-25T13:18:20.650Z,99470.09
2022-12-25T13:21:01.815Z,99472.84
2022-12-25T13:23:34.547Z,99478.47
2022-12-25T13:26:04.888Z,99483.13
2022-12-25T13:28:33.951Z,99473.63
2022-12-25T13:31:13.094Z,99480.28
2022-12-25T13:33:44.686Z,99476.25
2022-12-25T13:36:14.563Z,99475.16
2022-12-25T13:38:46.543Z,99479.13
2022-12-25T13:41:19.974Z,99473.75
2022-12-25T13:43:48.684Z,99475.19
2022-12-25T13:46:16.100Z,99470.56
2022-12-25T13:48:43.243Z,99473.97
2022-12-25T13:51:15.608Z,99479.81
2022-12-25T13:53:43.734Z,99472.19
2022-12-25T13:56:15.617Z,99466.44
2022-12-25T13:58:46.573Z,99468.53
2022-12-25T14:01:16.206Z,99449.88
2022-12-25T14:03:45.660Z,99450.91
2022-12-25T14:06:18.420Z,99450.91
2022-12-25T14:08:46.269Z,99449.72
2022-12-25T14:11:19.756Z,99436.91
2022-12-25T14:13:49.435Z,99429.09
2022-12-25T14:16:19.190Z,99434.06
2022-12-25T14:19:00.931Z,99433.59
2022-12-25T14:21:34.836Z,99436.31
2022-12-25T14:24:02.119Z,99438.28
2022-12-25T14:26:32.469Z,99445.16
2022-12-25T14:29:05.390Z,99452.19
2022-12-25T14:31:33.543Z,99455.28
2022-12-25T14:34:02.966Z,99453.41
2022-12-25T14:36:33.153Z,99446.81
2022-12-25T14:39:22.516Z,99449.44
2022-12-25T14:41:54.159Z,99453.66
2022-12-25T14:44:24.260Z,99453.50
2022-12-25T14:46:51.404Z,99443.97
2022-12-25T14:49:25.368Z,99449.44
2022-12-25T14:51:52.460Z,99447.94
2022-12-25T14:54:22.432Z,99452.69
2022-12-25T14:56:52.704Z,99454.47
2022-12-25T14:59:24.673Z,99449.88
2022-12-25T15:01:59.965Z,99455.03
2022-12-25T15:04:28.331Z,99461.00
2022-12-25T15:06:58.205Z,99460.53
2022-12-25T15:09:26.771Z,99455.63
2022-12-25T15:11:55.468Z,99455.25
2022-12-25T15:14:23.417Z,99445.75
2022-12-25T15:16:57.456Z,99445.66
2022-12-25T15:19:33.177Z,99439.72
2022-12-25T15:22:03.986Z,99451.84
2022-12-25T15:24:31.896Z,99453.22
2022-12-25T15:26:58.917Z,99443.59
2022-12-25T15:29:52.200Z,99439.34
2022-12-25T15:32:21.942Z,99435.66
2022-12-25T15:34:49.350Z,99434.97
2022-12-25T15:37:17.464Z,99438.09
2022-12-25T15:39:45.129Z,99423.78
2022-12-25T15:42:18.004Z,99425.69
2022-12-25T15:44:45.560Z,99415.84
2022-12-25T15:47:14.322Z,99416.88
2022-12-25T15:49:42.040Z,99423.88
2022-12-25T15:52:13.588Z,99427.81
2022-12-25T15:54:47.623Z,99434.47
2022-12-25T15:57:19.503Z,99434.47
2022-12-25T15:59:46.840Z,99418.13
2022-12-25T16:02:19.911Z,99426.31
2022-12-25T16:04:47.249Z,99424.44
2022-12-25T16:07:19.806Z,99428.69
2022-12-25T16:09:47.199Z,99436.16
2022-12-25T16:12:14.196Z,99431.06
2022-12-25T16:14:41.264Z,99423.41
2022-12-25T16:17:15.302Z,99429.88
2022-12-25T16:19:43.677Z,99432.94
2022-12-25T16:22:18.786Z,99431.75
2022-12-25T16:24:45.829Z,99437.34
2022-12-25T16:27:12.915Z,99438.03
2022-12-25T16:29:39.987Z,99432.41
2022-12-25T16:32:07.077Z,99443.09
2022-12-25T16:34:38.563Z,99428.16
2022-12-25T16:37:05.591Z,99430.22
2022-12-25T16:39:33.049Z,99424.78
2022-12-25T16:42:00.147Z,99418.50
2022-12-25T16:44:27.322Z,99426.66
2022-12-25T16:46:54.452Z,99410.19
2022-12-25T16:49:21.466Z,99414.47
2022-12-25T16:51:48.479Z,99413.63
2022-12-25T16:54:15.525Z,99406.00
2022-12-25T16:56:42.565Z,99409.91
2022-12-25T16:59:09.711Z,99396.00
2022-12-25T17:01:39.228Z,99398.41
2022-12-25T17:04:06.432Z,99409.31
2022-12-25T17:06:33.436Z,99415.59
2022-12-25T17:09:01.097Z,99423.09
2022-12-25T17:11:28.820Z,99422.25
2022-12-25T17:13:57.038Z,99422.06
2022-12-25T17:16:29.430Z,99429.19
2022-12-25T17:19:13.047Z,99427.50
2022-12-25T17:21:40.078Z,99416.81
2022-12-25T17:24:07.296Z,99415.13
2022-12-25T17:26:34.462Z,99419.38
2022-12-25T17:29:01.493Z,99424.97
2022-12-25T17:31:28.895Z,99437.38
2022-12-25T17:33:56.189Z,99445.38
2022-12-25T17:36:23.702Z,99439.75
2022-12-25T17:38:50.909Z,99426.50
2022-12-25T17:41:19.428Z,99429.22
2022-12-25T17:43:47.827Z,99422.81
2022-12-25T17:46:20.381Z,99426.53
2022-12-25T17:48:47.990Z,99425.38
2022-12-25T17:51:17.422Z,99429.63
2022-12-25T17:53:47.104Z,99429.28
2022-12-25T17:56:15.506Z,99431.81
2022-12-25T17:58:42.612Z,99438.63
2022-12-25T18:01:14.998Z,99441.00
2022-12-25T18:03:44.807Z,99438.44
2022-12-25T18:06:17.939Z,99433.88
2022-12-25T18:08:49.324Z,99428.09
2022-12-25T18:11:19.778Z,99423.00
2022-12-25T18:13:48.782Z,99420.13
2022-12-25T18:16:20.604Z,99420.13
2022-12-25T18:18:52.313Z,99414.16
2022-12-25T18:21:20.804Z,99411.25
2022-12-25T18:23:48.270Z,99409.75
2022-12-25T18:26:15.464Z,99409.44
2022-12-25T18:28:43.066Z,99413.31
2022-12-25T18:31:12.841Z,99418.41
2022-12-25T18:33:40.369Z,99409.06
2022-12-25T18:36:11.799Z,99415.66
2022-12-25T18:38:39.009Z,99413.78
2022-12-25T18:41:07.951Z,99425.53
2022-12-25T18:43:53.122Z,99415.34
2022-12-25T18:46:24.873Z,99417.22
2022-12-25T18:48:53.434Z,99411.09
2022-12-25T18:51:20.540Z,99406.53
2022-12-25T18:53:47.568Z,99398.88
2022-12-25T18:56:17.257Z,99407.88
2022-12-25T18:58:45.671Z,99395.66
2022-12-25T19:01:18.054Z,99397.53
2022-12-25T19:03:45.639Z,99394.97
2022-12-25T19:06:26.273Z,99396.50
2022-12-25T19:08:54.100Z,99391.59
2022-12-25T19:11:21.477Z,99394.97
2022-12-25T19:13:48.934Z,99410.06
2022-12-25T19:16:17.104Z,99402.78
2022-12-25T19:18:45.452Z,99396.50
2022-12-25T19:21:12.480Z,99382.56
2022-12-25T19:23:39.668Z,99381.75
2022-12-25T19:26:08.280Z,99377.16
2022-12-25T19:28:35.931Z,99385.84
2022-12-25T19:31:06.105Z,99396.72
2022-12-25T19:33:34.817Z,99396.88
2022-12-25T19:36:09.000Z,99402.66
2022-12-25T19:38:36.375Z,99404.66
2022-12-25T19:41:14.589Z,99407.38
2022-12-25T19:43:42.798Z,99401.28
2022-12-25T19:46:22.734Z,99391.28
2022-12-25T19:48:50.549Z,99399.78
2022-12-25T19:51:20.954Z,99403.34
2022-12-25T19:53:48.357Z,99410.31
2022-12-25T19:56:16.235Z,99402.97
2022-12-25T19:58:43.494Z,99393.47
2022-12-25T20:01:16.609Z,99401.78
2022-12-25T20:03:46.490Z,99399.94
2022-12-25T20:06:23.037Z,99398.91
2022-12-25T20:08:53.507Z,99401.78
2022-12-25T20:11:23.426Z,99408.94
2022-12-25T20:13:50.753Z,99408.94
2022-12-25T20:16:18.003Z,99412.47
2022-12-25T20:18:45.232Z,99400.41
2022-12-25T20:21:14.840Z,99399.94
2022-12-25T20:23:42.816Z,99397.53
2022-12-25T20:26:11.257Z,99404.19
2022-12-25T20:28:39.588Z,99409.44
2022-12-25T20:31:08.093Z,99409.28
2022-12-25T20:33:35.477Z,99424.38
2022-12-25T20:36:03.797Z,99417.09
2022-12-25T20:38:30.902Z,99405.84
2022-12-25T20:43:53.144Z,99411.97
2022-12-25T20:46:20.302Z,99407.19
2022-12-25T20:48:47.439Z,99401.75
2022-12-25T20:51:20.812Z,99399.03
2022-12-25T20:53:48.226Z,99401.09
2022-12-25T20:56:17.812Z,99408.22
2022-12-25T20:58:45.458Z,99397.34
2022-12-25T21:01:17.503Z,99382.56
2022-12-25T21:03:45.757Z,99391.75
2022-12-25T21:06:13.158Z,99383.13
2022-12-25T21:08:40.698Z,99409.09
2022-12-25T21:11:08.894Z,99410.78
2022-12-25T21:14:09.428Z,99410.94
2022-12-25T21:16:36.513Z,99411.59
2022-12-25T21:19:03.656Z,99417.19
2022-12-25T21:21:30.677Z,99426.19
2022-12-25T21:23:57.688Z,99446.72
2022-12-25T21:26:27.656Z,99442.66
2022-12-25T21:28:57.219Z,99452.31
2022-12-25T21:31:25.045Z,99442.13
2022-12-25T21:33:55.064Z,99436.69
2022-12-25T21:36:34.104Z,99437.19
2022-12-25T21:39:07.662Z,99419.50
2022-12-25T21:41:37.200Z,99416.09
2022-12-25T21:44:04.879Z,99428.31
2022-12-25T21:46:50.314Z,99439.66
2022-12-25T21:49:17.379Z,99448.31
2022-12-25T21:51:44.395Z,99435.41
2022-12-25T21:54:12.787Z,99431.16
2022-12-25T21:56:44.772Z,99437.75
2022-12-25T21:59:16.028Z,99444.34
2022-12-25T22:01:44.349Z,99441.63
2022-12-25T22:04:13.438Z,99441.13
2022-12-25T22:06:40.716Z,99454.16
2022-12-25T22:09:09.066Z,99456.19
2022-12-25T22:11:36.268Z,99462.41
2022-12-25T22:14:03.223Z,99468.03
2022-12-25T22:16:30.223Z,99476.13
2022-12-25T22:18:57.210Z,99467.06
2022-12-25T22:21:26.903Z,99467.19
2022-12-25T22:23:53.958Z,99469.88
2022-12-25T22:26:21.288Z,99471.66
2022-12-25T22:28:48.289Z,99474.41
2022-12-25T22:31:15.331Z,99471.97
2022-12-25T22:33:42.423Z,99466.63
2022-12-25T22:36:09.638Z,99465.19
2022-12-25T22:38:36.712Z,99467.72
2022-12-25T22:41:07.388Z,99468.00
2022-12-25T22:44:14.406Z,99471.25
2022-12-25T22:46:21.915Z,99476.97
2022-12-25T22:48:49.205Z,99470.50
2022-12-25T22:51:16.294Z,99466.38
2022-12-25T22:53:43.277Z,99468.72
2022-12-25T22:56:10.577Z,99473.81
2022-12-25T22:58:37.581Z,99476.53
2022-12-25T23:01:08.771Z,99466.81
2022-12-25T23:03:36.127Z,99467.22
2022-12-25T23:06:03.591Z,99457.81
2022-12-25T23:08:30.620Z,99458.00
2022-12-25T23:11:04.861Z,99463.28
2022-12-25T23:13:31.888Z,99466.81
2022-12-25T23:16:00.238Z,99468.06
2022-12-25T23:18:27.391Z,99461.78
2022-12-25T23:20:59.936Z,99452.09
2022-12-25T23:23:26.935Z,99456.50
2022-12-25T23:25:53.941Z,99457.34
2022-12-25T23:28:22.456Z,99464.50
2022-12-25T23:30:49.584Z,99463.00
2022-12-25T23:33:16.637Z,99465.03
2022-12-25T23:35:43.614Z,99477.63
2022-12-25T23:38:10.618Z,99480.84
2022-12-25T23:40:37.601Z,99474.72
2022-12-25T23:43:04.600Z,99480.84
2022-12-25T23:45:31.615Z,99496.06
2022-12-25T23:47:58.655Z,99480.16
2022-12-25T23:50:25.680Z,99499.44
2022-12-25T23:52:52.669Z,99496.72
2022-12-25T23:55:19.763Z,99490.06
2022-12-25T23:57:46.763Z,99488.34
